| time (UTC) | temp F | wind direction | speed knots | gust knots | rain 1hr in | rain 24hr in | rain mn in | humidity % | barometer mb |
| 20260905170003 | 64 | 312 | 6.1 | 14.8 | 0.00 | 0.15 | 0.15 | 50 | 1019.6 |
| 20260905165003 | 65 | 305 | 5.2 | 11.3 | 0.00 | 0.15 | 0.15 | 52 | 1019.6 |
| 20260905164003 | 65 | 307 | 6.1 | 13.0 | 0.00 | 0.15 | 0.15 | 52 | 1019.2 |
| 20260905163003 | 65 | 310 | 6.1 | 13.9 | 0.00 | 0.15 | 0.15 | 51 | 1019.4 |
| 20260905162024 | 66 | 307 | 7.0 | 13.9 | 0.00 | 0.15 | 0.15 | 50 | 1019.1 |
| 20260905161003 | 66 | 311 | 6.1 | 13.9 | 0.00 | 0.15 | 0.15 | 51 | 1019.1 |
| 20260905160003 | 66 | 302 | 7.0 | 14.8 | 0.00 | 0.15 | 0.15 | 50 | 1018.9 |
| 20260905155003 | 66 | 309 | 7.0 | 16.5 | 0.00 | 0.15 | 0.15 | 50 | 1018.8 |
| 20260905154003 | 66 | 306 | 6.1 | 13.9 | 0.00 | 0.15 | 0.15 | 51 | 1018.7 |
| 20260905153003 | 67 | 295 | 7.8 | 19.1 | 0.00 | 0.15 | 0.15 | 51 | 1018.6 |
| 20260905152003 | 67 | 296 | 7.0 | 15.6 | 0.00 | 0.15 | 0.15 | 51 | 1018.6 |
| 20260905151024 | 66 | 312 | 7.8 | 16.5 | 0.00 | 0.15 | 0.15 | 51 | 1018.8 |
| 20260905150003 | 66 | 308 | 7.8 | 14.8 | 0.00 | 0.15 | 0.15 | 52 | 1018.7 |
| 20260905145003 | 67 | 304 | 8.7 | 15.6 | 0.00 | 0.15 | 0.15 | 51 | 1018.6 |
| 20260905144024 | 69 | 282 | 8.7 | 17.4 | 0.00 | 0.15 | 0.15 | 50 | 1018.8 |
| 20260905143003 | 69 | 272 | 10.4 | 18.2 | 0.00 | 0.15 | 0.15 | 50 | 1018.7 |
| 20260905142003 | 69 | 283 | 8.7 | 17.4 | 0.00 | 0.15 | 0.15 | 50 | 1018.5 |
| 20260905141003 | 69 | 268 | 11.3 | 20.0 | 0.00 | 0.15 | 0.15 | 52 | 1018.7 |
| 20260905140004 | 68 | 278 | 10.4 | 23.5 | 0.00 | 0.15 | 0.15 | 53 | 1018.7 |
| 20260905135003 | 67 | 260 | 12.2 | 22.6 | 0.00 | 0.15 | 0.15 | 54 | 1018.7 |
| 20260905134003 | 67 | 281 | 9.6 | 20.9 | 0.00 | 0.15 | 0.15 | 55 | 1018.9 |
| 20260905133024 | 66 | 286 | 8.7 | 18.2 | 0.00 | 0.15 | 0.15 | 55 | 1018.9 |
| 20260905132003 | 66 | 305 | 6.1 | 13.0 | 0.00 | 0.15 | 0.15 | 56 | 1018.7 |
| 20260905131003 | 65 | 307 | 6.1 | 13.0 | 0.00 | 0.15 | 0.15 | 59 | 1019.1 |
| 20260905130003 | 65 | 306 | 6.1 | 12.2 | 0.00 | 0.15 | 0.15 | 57 | 1019.1 |
| 20260905125005 | 65 | 305 | 6.1 | 13.0 | 0.00 | 0.15 | 0.15 | 57 | 1019.1 |
| 20260905124003 | 66 | 306 | 6.1 | 15.6 | 0.00 | 0.15 | 0.15 | 54 | 1019.3 |
| 20260905123003 | 67 | 298 | 8.7 | 17.4 | 0.00 | 0.15 | 0.15 | 54 | 1019.2 |
| 20260905122003 | 67 | 272 | 11.3 | 20.9 | 0.00 | 0.15 | 0.15 | 53 | 1019.4 |
| 20260905121003 | 67 | 273 | 10.4 | 18.2 | 0.00 | 0.15 | 0.15 | 55 | 1019.3 |
| 20260905120003 | 66 | 265 | 11.3 | 20.0 | 0.00 | 0.15 | 0.15 | 58 | 1019.3 |
| 20260905115003 | 65 | 268 | 9.6 | 19.1 | 0.00 | 0.15 | 0.15 | 62 | 1019.5 |
| 20260905114003 | 64 | 281 | 9.6 | 16.5 | 0.00 | 0.15 | 0.15 | 61 | 1019.3 |
| 20260905113003 | 65 | 276 | 11.3 | 22.6 | 0.00 | 0.15 | 0.15 | 60 | 1019.2 |
| 20260905112003 | 64 | 282 | 8.7 | 20.9 | 0.00 | 0.15 | 0.15 | 64 | 1019.4 |
| 20260905111004 | 63 | 282 | 8.7 | 16.5 | 0.00 | 0.15 | 0.15 | 67 | 1019.2 |
| 20260905110004 | 64 | 279 | 7.8 | 15.6 | 0.00 | 0.15 | 0.15 | 67 | 1019.4 |
| 20260905105004 | 63 | 297 | 6.1 | 13.0 | 0.00 | 0.15 | 0.15 | 70 | 1019.3 |
| 20260905104004 | 64 | 275 | 9.6 | 20.9 | 0.00 | 0.15 | 0.15 | 66 | 1019.2 |
| 20260905103004 | 65 | 260 | 10.4 | 19.1 | 0.00 | 0.15 | 0.15 | 66 | 1019.1 |
| 20260905102004 | 65 | 265 | 8.7 | 17.4 | 0.00 | 0.15 | 0.15 | 70 | 1019.1 |
| 20260905101004 | 64 | 265 | 7.8 | 17.4 | 0.00 | 0.15 | 0.15 | 73 | 1019.1 |
| 20260905100004 | 63 | 279 | 8.7 | 16.5 | 0.00 | 0.15 | 0.15 | 74 | 1018.8 |
| 20260905095004 | 64 | 270 | 7.8 | 16.5 | 0.00 | 0.15 | 0.15 | 75 | 1019.2 |
| 20260905094025 | 62 | 278 | 7.8 | 13.9 | 0.00 | 0.15 | 0.15 | 76 | 1019.3 |
| 20260905093025 | 63 | 259 | 8.7 | 17.4 | 0.00 | 0.15 | 0.15 | 75 | 1019.1 |
| 20260905092005 | 63 | 262 | 7.0 | 13.9 | 0.00 | 0.15 | 0.15 | 78 | 1019.4 |
| 20260905091004 | 62 | 271 | 7.0 | 14.8 | 0.00 | 0.15 | 0.15 | 80 | 1019.2 |
| 20260905090004 | 61 | 280 | 6.1 | 13.0 | 0.00 | 0.15 | 0.15 | 80 | 1019.2 |
| 20260905085025 | 60 | 283 | 7.8 | 13.9 | 0.00 | 0.15 | 0.15 | 81 | 1019.2 |
| 20260905084004 | 60 | 294 | 6.1 | 12.2 | 0.00 | 0.15 | 0.15 | 83 | 1019.1 |
| 20260905083004 | 60 | 282 | 6.1 | 13.9 | 0.00 | 0.15 | 0.15 | 83 | 1019.1 |
| 20260905082004 | 59 | 274 | 6.1 | 13.9 | 0.00 | 0.15 | 0.15 | 83 | 1019.1 |
| 20260905081004 | 59 | 281 | 7.0 | 12.2 | 0.00 | 0.15 | 0.15 | 83 | 1018.7 |
| 20260905080004 | 58 | 291 | 6.1 | 13.9 | 0.00 | 0.15 | 0.15 | 84 | 1018.8 |
| 20260905075004 | 58 | 281 | 6.1 | 13.0 | 0.00 | 0.15 | 0.15 | 84 | 1018.5 |
| 20260905074004 | 59 | 265 | 7.0 | 13.0 | 0.00 | 0.15 | 0.15 | 84 | 1018.5 |
| 20260905073004 | 58 | 260 | 6.1 | 11.3 | 0.00 | 0.15 | 0.15 | 86 | 1018.4 |
| 20260905072025 | 58 | 262 | 7.0 | 12.2 | 0.00 | 0.15 | 0.15 | 87 | 1018.6 |
| 20260905071004 | 57 | 253 | 7.0 | 11.3 | 0.00 | 0.15 | 0.15 | 88 | 1018.5 |
| 20260905070004 | 56 | 256 | 5.2 | 10.4 | 0.00 | 0.15 | 0.15 | 89 | 1018.4 |
| 20260905065025 | 56 | 252 | 6.1 | 10.4 | 0.00 | 0.15 | 0.15 | 89 | 1018.6 |
| 20260905064004 | 56 | 254 | 5.2 | 8.7 | 0.00 | 0.15 | 0.15 | 89 | 1018.4 |
| 20260905063025 | 56 | 260 | 5.2 | 10.4 | 0.00 | 0.15 | 0.15 | 89 | 1018.1 |
| 20260905062004 | 55 | 254 | 7.0 | 13.0 | 0.00 | 0.15 | 0.15 | 89 | 1018.2 |
| 20260905061004 | 55 | 259 | 7.0 | 11.3 | 0.00 | 0.15 | 0.15 | 89 | 1017.9 |
| 20260905060004 | 55 | 263 | 7.0 | 13.0 | 0.00 | 0.15 | 0.15 | 89 | 1018.2 |
| 20260905055025 | 55 | 253 | 8.7 | 14.8 | 0.01 | 0.15 | 0.15 | 89 | 1018.0 |
| 20260905054025 | 55 | 247 | 5.2 | 9.6 | 0.02 | 0.15 | 0.15 | 89 | 1017.5 |
| 20260905053004 | 55 | 264 | 5.2 | 10.4 | 0.05 | 0.15 | 0.15 | 90 | 1017.7 |
| 20260905052004 | 55 | 257 | 6.1 | 14.8 | 0.07 | 0.15 | 0.15 | 91 | 1017.6 |
| 20260905051025 | 55 | 219 | 9.6 | 14.8 | 0.07 | 0.15 | 0.15 | 88 | 1016.1 |
| 20260905050025 | 56 | 240 | 7.8 | 14.8 | 0.08 | 0.15 | 0.15 | 87 | 1016.9 |
| 20260905045004 | 57 | 247 | 12.2 | 20.0 | 0.09 | 0.14 | 0.14 | 86 | 1017.2 |
| 20260905044004 | 58 | 248 | 12.2 | 20.0 | 0.09 | 0.13 | 0.13 | 89 | 1017.3 |
| 20260905043004 | 58 | 250 | 8.7 | 18.2 | 0.06 | 0.10 | 0.10 | 91 | 1017.4 |
| 20260905042004 | 58 | 282 | 3.5 | 8.7 | 0.04 | 0.08 | 0.08 | 89 | 1016.9 |
| 20260905041004 | 58 | 294 | 3.5 | 6.1 | 0.03 | 0.07 | 0.07 | 88 | 1016.3 |
| 20260905040004 | 59 | 279 | 3.5 | 7.8 | 0.02 | 0.06 | 0.06 | 89 | 1016.8 |
| 20260905035004 | 59 | 255 | 4.3 | 7.8 | 0.02 | 0.06 | 0.06 | 89 | 1017.4 |
| 20260905034004 | 59 | 233 | 4.3 | 7.0 | 0.01 | 0.05 | 0.05 | 88 | 1016.9 |
| 20260905033004 | 59 | 246 | 3.5 | 7.0 | 0.02 | 0.05 | 0.05 | 88 | 1016.2 |
| 20260905032004 | 59 | 254 | 2.6 | 6.1 | 0.02 | 0.04 | 0.04 | 88 | 1016.1 |
| 20260905031004 | 59 | 251 | 4.3 | 8.7 | 0.02 | 0.04 | 0.04 | 88 | 1016.1 |
| 20260905030004 | 59 | 255 | 4.3 | 8.7 | 0.02 | 0.04 | 0.04 | 87 | 1015.9 |
| 20260905025004 | 59 | 268 | 3.5 | 8.7 | 0.02 | 0.04 | 0.04 | 87 | 1016.1 |
| 20260905024004 | 60 | 265 | 3.5 | 8.7 | 0.02 | 0.04 | 0.04 | 87 | 1016.2 |
| 20260905023004 | 60 | 290 | 3.5 | 9.6 | 0.01 | 0.03 | 0.03 | 87 | 1016.0 |
| 20260905022025 | 60 | 303 | 3.5 | 7.8 | 0.00 | 0.02 | 0.02 | 87 | 1016.2 |
| 20260905021004 | 60 | 303 | 3.5 | 7.0 | 0.00 | 0.02 | 0.02 | 86 | 1015.7 |
| 20260905020004 | 60 | 309 | 2.6 | 7.8 | 0.00 | 0.02 | 0.02 | 83 | 1015.4 |
| 20260905015004 | 61 | 321 | 3.5 | 7.0 | 0.00 | 0.02 | 0.02 | 82 | 1015.4 |
| 20260905014004 | 61 | 311 | 3.5 | 7.0 | 0.01 | 0.02 | 0.02 | 79 | 1015.2 |
| 20260905013004 | 61 | 314 | 4.3 | 7.8 | 0.01 | 0.02 | 0.02 | 78 | 1015.3 |
| 20260905012004 | 62 | 319 | 6.1 | 12.2 | 0.01 | 0.02 | 0.02 | 76 | 1015.2 |
| 20260905011004 | 62 | 319 | 7.0 | 12.2 | 0.01 | 0.02 | 0.02 | 76 | 1015.3 |
| 20260905010004 | 62 | 312 | 6.1 | 12.2 | 0.02 | 0.02 | 0.02 | 76 | 1015.5 |
| 20260905005004 | 63 | 310 | 6.1 | 13.0 | 0.02 | 0.02 | 0.02 | 75 | 1015.3 |
| 20260905004004 | 63 | 310 | 6.1 | 13.0 | 0.01 | 0.01 | 0.01 | 74 | 1015.2 |
| 20260905003004 | 63 | 305 | 4.3 | 10.4 | 0.01 | 0.01 | 0.01 | 73 | 1014.9 |
| 20260905002004 | 64 | 310 | 5.2 | 9.6 | 0.01 | 0.01 | 0.01 | 73 | 1014.8 |
| 20260905001004 | 65 | 316 | 7.0 | 13.0 | 0.01 | 0.01 | 0.01 | 70 | 1014.8 |
| 20260905000004 | 65 | 318 | 7.8 | 17.4 | 0.00 | 0.00 | 0.00 | 66 | 1014.2 |
| 20260904235004 | 65 | 331 | 5.2 | 12.2 | 0.00 | 0.00 | 0.00 | 68 | 1013.5 |
| 20260904234004 | 65 | 344 | 6.1 | 13.0 | 0.00 | 0.00 | 0.00 | 68 | 1013.6 |
| 20260904233004 | 66 | 325 | 6.1 | 15.6 | 0.00 | 0.00 | 0.00 | 69 | 1013.5 |
| 20260904232004 | 67 | 310 | 6.1 | 13.9 | 0.00 | 0.00 | 0.00 | 70 | 1012.9 |
| 20260904231004 | 68 | 303 | 6.1 | 10.4 | 0.00 | 0.00 | 0.00 | 69 | 1012.7 |
| 20260904230025 | 69 | 300 | 5.2 | 12.2 | 0.00 | 0.00 | 0.00 | 66 | 1012.7 |
| 20260904225004 | 69 | 260 | 1.7 | 4.3 | 0.00 | 0.00 | 0.00 | 64 | 1011.9 |
| 20260904224004 | 70 | 295 | 1.7 | 2.6 | 0.00 | 0.00 | 0.00 | 64 | 1011.7 |
| 20260904223004 | 70 | 320 | 2.6 | 4.3 | 0.00 | 0.00 | 0.00 | 63 | 1012.0 |
| 20260904222004 | 70 | 312 | 2.6 | 4.3 | 0.00 | 0.00 | 0.00 | 63 | 1011.8 |
| 20260904221004 | 70 | 304 | 2.6 | 5.2 | 0.00 | 0.00 | 0.00 | 63 | 1011.7 |
| 20260904220004 | 70 | 239 | 3.5 | 7.8 | 0.00 | 0.00 | 0.00 | 62 | 1011.7 |
| 20260904215004 | 70 | 202 | 3.5 | 7.0 | 0.00 | 0.00 | 0.00 | 61 | 1011.5 |
| 20260904214025 | 71 | 184 | 3.5 | 6.1 | 0.00 | 0.00 | 0.00 | 61 | 1011.4 |
| 20260904213004 | 71 | 183 | 4.3 | 7.8 | 0.00 | 0.00 | 0.00 | 60 | 1011.2 |
| 20260904212004 | 71 | 181 | 4.3 | 8.7 | 0.00 | 0.00 | 0.00 | 60 | 1011.2 |
| 20260904211004 | 71 | 182 | 4.3 | 7.8 | 0.00 | 0.00 | 0.00 | 61 | 1011.1 |
| 20260904210004 | 71 | 185 | 4.3 | 7.8 | 0.00 | 0.00 | 0.00 | 61 | 1011.2 |
| 20260904205025 | 71 | 184 | 4.3 | 8.7 | 0.00 | 0.00 | 0.00 | 61 | 1011.3 |
| 20260904204004 | 71 | 181 | 4.3 | 7.8 | 0.00 | 0.00 | 0.00 | 61 | 1011.4 |
| 20260904203004 | 71 | 185 | 3.5 | 7.0 | 0.00 | 0.00 | 0.00 | 61 | 1011.6 |
| 20260904202004 | 71 | 182 | 3.5 | 6.1 | 0.00 | 0.00 | 0.00 | 61 | 1011.5 |
| 20260904201004 | 71 | 195 | 3.5 | 8.7 | 0.00 | 0.00 | 0.00 | 61 | 1011.5 |
| 20260904200004 | 71 | 198 | 3.5 | 7.8 | 0.00 | 0.00 | 0.00 | 61 | 1011.5 |
| 20260904195004 | 71 | 189 | 3.5 | 7.0 | 0.00 | 0.00 | 0.00 | 61 | 1011.8 |
| 20260904194025 | 72 | 183 | 4.3 | 7.8 | 0.00 | 0.00 | 0.00 | 60 | 1011.8 |
| 20260904193004 | 72 | 178 | 3.5 | 7.0 | 0.00 | 0.00 | 0.00 | 60 | 1011.8 |
| 20260904192004 | 72 | 180 | 4.3 | 7.8 | 0.00 | 0.00 | 0.00 | 60 | 1011.7 |
| 20260904191004 | 73 | 181 | 4.3 | 7.8 | 0.00 | 0.00 | 0.00 | 60 | 1011.7 |
| 20260904190025 | 73 | 179 | 4.3 | 8.7 | 0.00 | 0.00 | 0.00 | 60 | 1011.8 |
| 20260904185025 | 73 | 178 | 3.5 | 6.1 | 0.00 | 0.00 | 0.00 | 60 | 1011.6 |
| 20260904184004 | 74 | 180 | 3.5 | 7.8 | 0.00 | 0.00 | 0.00 | 60 | 1011.9 |
| 20260904183004 | 74 | 183 | 2.6 | 5.2 | 0.00 | 0.00 | 0.00 | 60 | 1011.9 |
| 20260904182004 | 74 | 190 | 2.6 | 5.2 | 0.00 | 0.00 | 0.00 | 60 | 1012.3 |
| 20260904181004 | 74 | 193 | 2.6 | 5.2 | 0.00 | 0.00 | 0.00 | 60 | 1012.0 |
| 20260904180004 | 74 | 205 | 3.5 | 5.2 | 0.00 | 0.00 | 0.00 | 60 | 1012.3 |
| 20260904175004 | 74 | 206 | 2.6 | 4.3 | 0.00 | 0.00 | 0.00 | 61 | 1012.1 |
| 20260904174025 | 74 | 209 | 2.6 | 5.2 | 0.00 | 0.00 | 0.00 | 60 | 1012.1 |
| 20260904173004 | 74 | 232 | 3.5 | 5.2 | 0.00 | 0.00 | 0.00 | 59 | 1012.0 |
| 20260904172004 | 75 | 245 | 4.3 | 6.1 | 0.00 | 0.00 | 0.00 | 58 | 1011.8 |
| 20260904171004 | 76 | 245 | 3.5 | 7.0 | 0.00 | 0.00 | 0.00 | 57 | 1011.7 |